createdAt,value
2019-03-11T00:00:59.091Z,0.00
2019-03-11T00:01:59.073Z,0.00
2019-03-11T00:02:59.072Z,0.00
2019-03-11T00:03:59.056Z,0.00
2019-03-11T00:04:59.043Z,0.00
2019-03-11T00:05:59.030Z,0.00
2019-03-11T00:06:59.020Z,0.00
2019-03-11T00:07:59.016Z,0.00
2019-03-11T00:08:59.007Z,0.00
2019-03-11T00:09:58.989Z,0.00
2019-03-11T00:10:58.980Z,0.00
2019-03-11T00:11:58.969Z,0.00
2019-03-11T00:12:58.956Z,0.00
2019-03-11T00:13:58.949Z,0.00
2019-03-11T00:14:58.961Z,0.00
2019-03-11T00:15:58.922Z,0.00
2019-03-11T00:16:58.913Z,0.00
2019-03-11T00:17:58.904Z,0.00
2019-03-11T00:18:58.898Z,0.00
2019-03-11T00:19:58.889Z,0.00
2019-03-11T00:20:58.894Z,0.00
2019-03-11T00:21:58.863Z,0.00
2019-03-11T00:22:58.855Z,0.00
2019-03-11T00:23:58.849Z,0.00
2019-03-11T00:24:58.842Z,0.00
2019-03-11T00:25:58.837Z,0.00
2019-03-11T00:26:58.807Z,0.00
2019-03-11T00:27:58.795Z,0.00
2019-03-11T00:28:58.787Z,0.00
2019-03-11T00:29:58.776Z,0.00
2019-03-11T00:30:58.771Z,0.00
2019-03-11T00:31:58.755Z,0.00
2019-03-11T00:32:58.743Z,0.00
2019-03-11T00:33:58.735Z,0.00
2019-03-11T00:34:58.727Z,0.00
2019-03-11T00:35:58.713Z,0.00
2019-03-11T00:36:58.705Z,0.00
2019-03-11T00:37:58.697Z,0.00
2019-03-11T00:38:58.683Z,0.00
2019-03-11T00:39:58.675Z,0.00
2019-03-11T00:40:58.667Z,0.00
2019-03-11T00:41:58.651Z,0.00
2019-03-11T00:42:58.645Z,0.00
2019-03-11T00:43:58.649Z,0.00
2019-03-11T00:44:58.615Z,0.00
2019-03-11T00:45:58.671Z,0.00
2019-03-11T00:46:58.593Z,0.00
2019-03-11T00:48:02.402Z,0.00
2019-03-11T00:48:58.571Z,0.00
2019-03-11T00:49:58.566Z,0.00
2019-03-11T00:50:58.552Z,0.00
2019-03-11T00:51:58.537Z,0.00
2019-03-11T00:52:58.531Z,0.00
2019-03-11T00:53:58.522Z,0.00
2019-03-11T00:54:58.511Z,0.00
2019-03-11T00:55:58.499Z,0.00
2019-03-11T00:56:58.492Z,0.00
2019-03-11T00:57:58.481Z,0.00
2019-03-11T00:58:58.465Z,0.00
2019-03-11T00:59:58.464Z,0.00
2019-03-11T01:00:58.451Z,0.00
2019-03-11T01:01:58.489Z,0.00
2019-03-11T01:02:58.424Z,0.00
2019-03-11T01:03:58.437Z,0.00
2019-03-11T01:04:58.412Z,0.00
2019-03-11T01:05:58.408Z,0.00
2019-03-11T01:06:58.382Z,0.00
2019-03-11T01:07:58.375Z,0.00
2019-03-11T01:08:58.367Z,0.00
2019-03-11T01:09:58.365Z,0.00
2019-03-11T01:10:58.349Z,0.00
2019-03-11T01:11:58.334Z,0.00
2019-03-11T01:12:58.324Z,0.00
2019-03-11T01:13:58.317Z,0.00
2019-03-11T01:14:58.293Z,0.00
2019-03-11T01:15:58.285Z,0.00
2019-03-11T01:16:58.283Z,0.00
2019-03-11T01:17:58.267Z,0.00
2019-03-11T01:18:58.261Z,0.00
2019-03-11T01:19:58.254Z,0.00
2019-03-11T01:20:58.239Z,0.00
2019-03-11T01:21:58.226Z,0.00
2019-03-11T01:22:58.225Z,0.00
2019-03-11T01:23:58.207Z,0.00
2019-03-11T01:24:58.220Z,0.00
2019-03-11T01:25:58.182Z,0.00
2019-03-11T01:26:58.168Z,0.00
2019-03-11T01:27:58.163Z,0.00
2019-03-11T01:28:58.195Z,0.00
2019-03-11T01:29:58.149Z,0.00
2019-03-11T01:30:58.140Z,0.00
2019-03-11T01:31:58.132Z,0.00
2019-03-11T01:32:58.111Z,0.00
2019-03-11T01:33:58.103Z,0.00
2019-03-11T01:34:58.090Z,0.00
2019-03-11T01:35:58.082Z,0.00
2019-03-11T01:36:58.088Z,0.00
2019-03-11T01:37:58.057Z,0.00
2019-03-11T01:38:58.045Z,0.00
2019-03-11T01:39:58.041Z,0.00
2019-03-11T01:40:58.025Z,0.00
2019-03-11T01:41:58.019Z,0.00
2019-03-11T01:42:58.003Z,0.00
2019-03-11T01:43:57.995Z,0.00
2019-03-11T01:44:57.996Z,0.00
2019-03-11T01:45:57.980Z,0.00
2019-03-11T01:46:57.964Z,0.00
2019-03-11T01:47:57.954Z,0.00
2019-03-11T01:48:57.940Z,0.00
2019-03-11T01:49:57.932Z,0.00
2019-03-11T01:50:57.927Z,0.00
2019-03-11T01:51:57.915Z,0.00
2019-03-11T01:52:57.905Z,0.00
2019-03-11T01:53:57.890Z,0.00
2019-03-11T01:54:57.875Z,0.00
2019-03-11T01:55:57.867Z,0.00
2019-03-11T01:56:57.865Z,0.00
2019-03-11T01:57:57.855Z,0.00
2019-03-11T01:58:57.840Z,0.00
2019-03-11T01:59:57.851Z,0.00
2019-03-11T02:00:57.816Z,0.00
2019-03-11T02:01:57.804Z,0.00
2019-03-11T02:02:57.797Z,0.00
2019-03-11T02:03:57.781Z,0.00
2019-03-11T02:04:57.793Z,0.00
2019-03-11T02:05:57.766Z,0.00
2019-03-11T02:06:57.758Z,0.00
2019-03-11T02:07:57.742Z,0.00
2019-03-11T02:08:57.743Z,0.00
2019-03-11T02:09:57.722Z,0.00
2019-03-11T02:10:57.710Z,0.00
2019-03-11T02:11:57.695Z,0.00
2019-03-11T02:12:57.690Z,0.00
2019-03-11T02:13:57.683Z,0.00
2019-03-11T02:14:57.682Z,0.00
2019-03-11T02:15:57.662Z,0.00
2019-03-11T02:16:57.652Z,0.00
2019-03-11T02:17:57.644Z,0.00
2019-03-11T02:18:57.624Z,0.00
2019-03-11T02:19:57.623Z,0.00
2019-03-11T02:20:57.606Z,0.00
2019-03-11T02:21:57.604Z,0.00
2019-03-11T02:22:57.613Z,0.00
2019-03-11T02:23:57.582Z,0.00
2019-03-11T02:24:57.585Z,0.00
2019-03-11T02:25:57.552Z,0.00
2019-03-11T02:26:57.543Z,0.00
2019-03-11T02:27:57.545Z,0.00
2019-03-11T02:28:57.520Z,0.00
2019-03-11T02:29:57.517Z,0.00
2019-03-11T02:30:57.505Z,0.00
2019-03-11T02:31:57.498Z,0.00
2019-03-11T02:32:57.490Z,0.00
2019-03-11T02:33:57.470Z,0.00
2019-03-11T02:34:57.457Z,0.00
2019-03-11T02:35:57.451Z,0.00
2019-03-11T02:36:57.449Z,0.00
2019-03-11T02:37:57.446Z,0.00
2019-03-11T02:38:57.416Z,0.00
2019-03-11T02:39:57.408Z,0.00
2019-03-11T02:40:57.398Z,0.00
2019-03-11T02:41:57.396Z,0.00
2019-03-11T02:42:57.389Z,0.00
2019-03-11T02:43:57.356Z,0.00
2019-03-11T02:44:57.352Z,0.00
2019-03-11T02:45:57.348Z,0.00
2019-03-11T02:46:57.331Z,0.00
2019-03-11T02:47:57.322Z,0.00
2019-03-11T02:48:57.317Z,0.00
2019-03-11T02:49:57.309Z,0.00
2019-03-11T02:50:57.284Z,0.00
2019-03-11T02:51:57.293Z,0.00
2019-03-11T02:52:57.275Z,0.00
2019-03-11T02:53:57.254Z,0.00
2019-03-11T02:54:57.255Z,0.00
2019-03-11T02:55:57.237Z,0.00
2019-03-11T02:56:57.236Z,0.00
2019-03-11T02:57:57.213Z,0.00
2019-03-11T02:58:57.217Z,0.00
2019-03-11T02:59:57.208Z,0.00
2019-03-11T03:00:57.198Z,0.00
2019-03-11T03:01:57.195Z,0.00
2019-03-11T03:02:57.155Z,0.00
2019-03-11T03:03:57.153Z,0.00
2019-03-11T03:04:57.141Z,0.00
2019-03-11T03:05:57.133Z,0.00
2019-03-11T03:06:57.122Z,0.00
2019-03-11T03:07:57.106Z,0.00
2019-03-11T03:08:57.127Z,0.00
2019-03-11T03:09:57.091Z,0.00
2019-03-11T03:10:57.080Z,0.00
2019-03-11T03:11:57.068Z,0.00
2019-03-11T03:12:57.052Z,0.00
2019-03-11T03:13:57.044Z,0.00
2019-03-11T03:14:57.031Z,0.00
2019-03-11T03:15:57.022Z,0.00
2019-03-11T03:16:57.030Z,0.00
2019-03-11T03:17:57.006Z,0.00
2019-03-11T03:18:56.997Z,0.00
2019-03-11T03:19:56.982Z,0.00
2019-03-11T03:20:56.995Z,0.00
2019-03-11T03:21:56.989Z,0.00
2019-03-11T03:22:56.983Z,0.00
2019-03-11T03:23:56.936Z,0.00
2019-03-11T03:24:56.930Z,0.00
2019-03-11T03:25:56.928Z,0.00
2019-03-11T03:26:56.915Z,0.00
2019-03-11T03:27:56.985Z,0.00
2019-03-11T03:28:56.887Z,0.00
2019-03-11T03:29:56.876Z,0.00
2019-03-11T03:30:56.866Z,0.00
2019-03-11T03:31:57.015Z,0.00
2019-03-11T03:32:56.869Z,0.00
2019-03-11T03:33:56.868Z,0.00
2019-03-11T03:34:56.826Z,0.00
2019-03-11T03:35:56.809Z,0.00
2019-03-11T03:36:56.804Z,0.00
2019-03-11T03:37:56.794Z,0.00
2019-03-11T03:38:56.778Z,0.00
2019-03-11T03:39:56.774Z,0.00
2019-03-11T03:40:56.759Z,0.00
2019-03-11T03:41:56.742Z,0.00
2019-03-11T03:42:56.851Z,0.00
2019-03-11T03:43:56.732Z,0.00
2019-03-11T03:44:56.714Z,0.00
2019-03-11T03:45:56.720Z,0.00
2019-03-11T03:46:56.694Z,0.00
2019-03-11T03:47:56.699Z,0.00
2019-03-11T03:48:56.674Z,0.00
2019-03-11T03:49:56.664Z,0.00
2019-03-11T03:50:56.653Z,0.00
2019-03-11T03:51:56.645Z,0.00
2019-03-11T03:52:56.640Z,0.00
2019-03-11T03:53:56.643Z,0.00
2019-03-11T03:54:56.605Z,0.00
2019-03-11T03:55:56.601Z,0.00
2019-03-11T03:56:56.593Z,0.00
2019-03-11T03:57:56.585Z,0.00
2019-03-11T03:58:56.562Z,0.00
2019-03-11T03:59:56.555Z,0.00
2019-03-11T04:00:56.551Z,0.00
2019-03-11T04:01:56.536Z,0.00
2019-03-11T04:02:56.550Z,0.00
2019-03-11T04:03:56.510Z,0.00
2019-03-11T04:04:56.579Z,0.00
2019-03-11T04:05:56.526Z,0.00
2019-03-11T04:06:56.483Z,0.00
2019-03-11T04:07:56.476Z,0.00
2019-03-11T04:08:56.484Z,0.00
2019-03-11T04:09:56.450Z,0.00
2019-03-11T04:10:56.438Z,0.00
2019-03-11T04:11:56.429Z,0.00
2019-03-11T04:12:56.516Z,0.00
2019-03-11T04:13:56.412Z,0.00
2019-03-11T04:14:56.398Z,0.00
2019-03-11T04:15:56.385Z,0.00
2019-03-11T04:16:56.371Z,0.00
2019-03-11T04:17:56.361Z,0.00
2019-03-11T04:18:56.350Z,0.00
2019-03-11T04:19:56.342Z,0.00
2019-03-11T04:20:56.347Z,0.00
2019-03-11T04:21:56.316Z,0.00
2019-03-11T04:22:56.324Z,0.00
2019-03-11T04:23:56.307Z,0.00
2019-03-11T04:24:56.290Z,0.00
2019-03-11T04:25:56.283Z,0.00
2019-03-11T04:26:56.267Z,0.00
2019-03-11T04:27:56.258Z,0.00
2019-03-11T04:28:56.244Z,0.00
2019-03-11T04:29:56.239Z,0.00
2019-03-11T04:30:56.224Z,0.00
2019-03-11T04:31:56.219Z,0.00
2019-03-11T04:32:56.236Z,0.00
2019-03-11T04:33:56.192Z,0.00
2019-03-11T04:34:56.184Z,0.00
2019-03-11T04:35:56.172Z,0.00
2019-03-11T04:36:56.163Z,0.00
2019-03-11T04:37:56.146Z,0.00
2019-03-11T04:38:56.186Z,0.00
2019-03-11T04:39:56.143Z,0.00
2019-03-11T04:40:56.115Z,0.00
2019-03-11T04:41:56.110Z,0.00
2019-03-11T04:42:56.099Z,0.00
2019-03-11T04:43:56.118Z,0.00
2019-03-11T04:44:56.074Z,0.00
2019-03-11T04:45:56.061Z,0.00
2019-03-11T04:46:56.058Z,0.00
2019-03-11T04:47:56.041Z,0.00
2019-03-11T04:48:56.035Z,0.00
2019-03-11T04:49:56.015Z,0.00
2019-03-11T04:50:56.005Z,0.00
2019-03-11T04:51:55.999Z,0.00
2019-03-11T04:52:55.985Z,0.00
2019-03-11T04:53:56.049Z,0.00
2019-03-11T04:54:55.965Z,0.00
2019-03-11T04:55:55.955Z,0.00
2019-03-11T04:56:55.947Z,0.00
2019-03-11T04:57:55.931Z,0.00
2019-03-11T04:58:55.919Z,0.00
2019-03-11T04:59:55.923Z,0.00
2019-03-11T05:00:55.902Z,0.00
2019-03-11T05:01:55.896Z,0.00
2019-03-11T05:02:55.887Z,0.00
2019-03-11T05:03:55.879Z,0.00
2019-03-11T05:04:55.859Z,0.00
2019-03-11T05:05:55.855Z,0.00
2019-03-11T05:06:55.851Z,0.00
2019-03-11T05:07:55.830Z,0.00
2019-03-11T05:08:55.818Z,0.00
2019-03-11T05:09:55.813Z,0.00
2019-03-11T05:10:55.805Z,0.00
2019-03-11T05:11:55.794Z,0.00
2019-03-11T05:12:55.776Z,0.00
2019-03-11T05:13:55.775Z,0.00
2019-03-11T05:14:55.760Z,0.00
2019-03-11T05:15:55.749Z,0.00
2019-03-11T05:16:55.742Z,0.00
2019-03-11T05:17:55.736Z,0.00
2019-03-11T05:18:55.711Z,0.00
2019-03-11T05:19:55.709Z,0.00
2019-03-11T05:20:55.690Z,0.00
2019-03-11T05:21:55.685Z,0.00
2019-03-11T05:22:55.670Z,0.00
2019-03-11T05:23:55.659Z,0.00
2019-03-11T05:24:55.655Z,0.00
2019-03-11T05:25:55.643Z,0.00
2019-03-11T05:26:55.627Z,0.00
2019-03-11T05:27:55.618Z,0.00
2019-03-11T05:28:55.618Z,0.00
2019-03-11T05:29:55.601Z,0.00
2019-03-11T05:30:55.587Z,0.00
2019-03-11T05:31:55.573Z,0.00
2019-03-11T05:32:55.573Z,0.00
2019-03-11T05:33:55.560Z,0.00
2019-03-11T05:34:55.553Z,0.00
2019-03-11T05:35:55.532Z,0.00
2019-03-11T05:36:55.525Z,0.00
2019-03-11T05:37:55.513Z,0.00
2019-03-11T05:38:55.504Z,0.00
2019-03-11T05:39:55.493Z,0.00
2019-03-11T05:40:55.489Z,0.00
2019-03-11T05:41:55.469Z,0.00
2019-03-11T05:42:55.474Z,0.00
2019-03-11T05:43:55.449Z,0.00
2019-03-11T05:44:55.440Z,5.62
2019-03-11T05:45:55.433Z,5.62
2019-03-11T05:46:55.415Z,5.62
2019-03-11T05:47:55.418Z,5.62
2019-03-11T05:48:55.397Z,5.62
2019-03-11T05:49:55.394Z,5.62
2019-03-11T05:50:55.381Z,5.62
2019-03-11T05:51:55.374Z,5.62
2019-03-11T05:52:55.352Z,5.62
2019-03-11T05:53:55.339Z,5.62
2019-03-11T05:54:55.329Z,5.62
2019-03-11T05:55:55.434Z,5.62
2019-03-11T05:56:55.308Z,5.62
2019-03-11T05:57:55.321Z,11.25
2019-03-11T05:58:55.284Z,11.25
2019-03-11T05:59:55.279Z,11.25
2019-03-11T06:00:55.267Z,11.25
2019-03-11T06:01:55.269Z,11.25
2019-03-11T06:02:55.250Z,11.25
2019-03-11T06:03:55.230Z,11.25
2019-03-11T06:04:55.225Z,11.25
2019-03-11T06:05:55.211Z,16.88
2019-03-11T06:06:55.214Z,16.88
2019-03-11T06:07:55.195Z,16.88
2019-03-11T06:08:55.183Z,22.50
2019-03-11T06:09:55.170Z,22.50
2019-03-11T06:10:55.161Z,28.12
2019-03-11T06:11:55.157Z,28.12
2019-03-11T06:12:55.145Z,33.75
2019-03-11T06:13:55.136Z,33.75
2019-03-11T06:14:55.119Z,33.75
2019-03-11T06:15:55.107Z,39.38
2019-03-11T06:16:55.096Z,39.38
2019-03-11T06:17:55.083Z,45.00
2019-03-11T06:18:55.096Z,50.62
2019-03-11T06:19:55.063Z,56.25
2019-03-11T06:20:55.054Z,56.25
2019-03-11T06:21:55.035Z,61.88
2019-03-11T06:22:55.025Z,61.88
2019-03-11T06:23:55.043Z,61.88
2019-03-11T06:24:55.036Z,67.50
2019-03-11T06:25:55.008Z,67.50
2019-03-11T06:26:54.985Z,67.50
2019-03-11T06:27:54.988Z,67.50
2019-03-11T06:28:54.997Z,73.12
2019-03-11T06:29:54.955Z,73.12
2019-03-11T06:30:54.958Z,78.75
2019-03-11T06:31:54.946Z,78.75
2019-03-11T06:32:54.931Z,84.38
2019-03-11T06:33:54.909Z,95.62
2019-03-11T06:34:54.904Z,101.25
2019-03-11T06:35:54.889Z,106.88
2019-03-11T06:36:54.881Z,106.88
2019-03-11T06:37:54.875Z,118.12
2019-03-11T06:39:04.977Z,118.12
2019-03-11T06:39:55.850Z,123.75
2019-03-11T06:40:54.846Z,135.00
2019-03-11T06:41:54.837Z,140.62
2019-03-11T06:42:54.824Z,140.62
2019-03-11T06:43:54.799Z,140.62
2019-03-11T06:44:54.785Z,135.00
2019-03-11T06:45:54.780Z,135.00
2019-03-11T06:46:54.770Z,135.00
2019-03-11T06:47:54.782Z,140.62
2019-03-11T06:48:54.749Z,146.25
2019-03-11T06:49:54.739Z,146.25
2019-03-11T06:50:54.730Z,151.88
2019-03-11T06:51:54.721Z,163.12
2019-03-11T06:52:54.703Z,168.75
2019-03-11T06:53:54.699Z,185.62
2019-03-11T06:54:54.692Z,202.50
2019-03-11T06:55:54.669Z,230.62
2019-03-11T06:56:54.659Z,230.62
2019-03-11T06:57:54.662Z,230.62
2019-03-11T06:58:54.645Z,225.00
2019-03-11T06:59:54.644Z,196.88
2019-03-11T07:00:54.625Z,185.62
2019-03-11T07:01:54.621Z,185.62
2019-03-11T07:02:54.601Z,191.25
2019-03-11T07:03:54.597Z,196.88
2019-03-11T07:04:54.648Z,208.12
2019-03-11T07:05:54.609Z,213.75
2019-03-11T07:06:54.560Z,208.12
2019-03-11T07:07:54.547Z,213.75
2019-03-11T07:08:54.535Z,219.38
2019-03-11T07:09:54.527Z,241.88
2019-03-11T07:10:54.535Z,264.38
2019-03-11T07:11:54.508Z,241.88
2019-03-11T07:12:54.499Z,230.62
2019-03-11T07:13:54.477Z,225.00
2019-03-11T07:14:54.473Z,236.25
2019-03-11T07:15:54.465Z,292.50
2019-03-11T07:16:54.467Z,326.25
2019-03-11T07:17:54.443Z,337.50
2019-03-11T07:18:54.435Z,348.75
2019-03-11T07:19:54.413Z,354.38
2019-03-11T07:20:54.409Z,399.38
2019-03-11T07:21:54.402Z,405.00
2019-03-11T07:22:54.487Z,393.75
2019-03-11T07:23:54.377Z,399.38
2019-03-11T07:24:54.367Z,416.25
2019-03-11T07:25:54.351Z,388.12
2019-03-11T07:26:54.341Z,320.62
2019-03-11T07:27:54.334Z,382.50
2019-03-11T07:28:54.317Z,371.25
2019-03-11T07:29:54.313Z,337.50
2019-03-11T07:30:54.302Z,241.88
2019-03-11T07:31:54.293Z,236.25
2019-03-11T07:32:54.282Z,326.25
2019-03-11T07:33:54.272Z,343.12
2019-03-11T07:34:54.259Z,427.50
2019-03-11T07:35:54.262Z,421.88
2019-03-11T07:36:54.275Z,444.38
2019-03-11T07:37:54.245Z,500.62
2019-03-11T07:38:54.219Z,528.75
2019-03-11T07:39:54.217Z,585.00
2019-03-11T07:40:54.215Z,680.62
2019-03-11T07:41:54.195Z,675.00
2019-03-11T07:42:54.175Z,556.88
2019-03-11T07:43:54.165Z,455.62
2019-03-11T07:44:54.157Z,202.50
2019-03-11T07:45:54.142Z,135.00
2019-03-11T07:46:54.188Z,123.75
2019-03-11T07:47:54.117Z,95.62
2019-03-11T07:48:54.105Z,67.50
2019-03-11T07:49:54.098Z,73.12
2019-03-11T07:50:54.091Z,84.38
2019-03-11T07:51:54.093Z,106.88
2019-03-11T07:52:54.063Z,95.62
2019-03-11T07:53:54.055Z,90.00
2019-03-11T07:54:54.046Z,106.88
2019-03-11T07:55:54.037Z,101.25
2019-03-11T07:56:54.036Z,90.00
2019-03-11T07:57:54.077Z,78.75
2019-03-11T07:58:54.011Z,73.12
2019-03-11T07:59:53.991Z,73.12
2019-03-11T08:00:54.416Z,67.50
2019-03-11T08:01:53.977Z,73.12
2019-03-11T08:02:53.954Z,78.75
2019-03-11T08:03:53.968Z,78.75
2019-03-11T08:04:53.943Z,90.00
2019-03-11T08:05:53.925Z,106.88
2019-03-11T08:06:53.913Z,140.62
2019-03-11T08:07:53.977Z,123.75
2019-03-11T08:08:53.916Z,101.25
2019-03-11T08:09:53.885Z,90.00
2019-03-11T08:10:53.876Z,78.75
2019-03-11T08:11:53.863Z,78.75
2019-03-11T08:12:53.856Z,78.75
2019-03-11T08:13:53.847Z,84.38
2019-03-11T08:14:53.827Z,84.38
2019-03-11T08:15:53.823Z,73.12
2019-03-11T08:16:53.819Z,61.88
2019-03-11T08:17:54.294Z,56.25
2019-03-11T08:18:53.784Z,67.50
2019-03-11T08:19:53.773Z,67.50
2019-03-11T08:20:53.815Z,73.12
2019-03-11T08:21:53.755Z,67.50
2019-03-11T08:22:53.746Z,73.12
2019-03-11T08:23:53.732Z,73.12
2019-03-11T08:24:53.725Z,73.12
2019-03-11T08:25:53.746Z,73.12
2019-03-11T08:26:53.721Z,61.88
2019-03-11T08:27:53.689Z,73.12
2019-03-11T08:28:53.685Z,67.50
2019-03-11T08:29:53.730Z,61.88
2019-03-11T08:30:53.666Z,78.75
2019-03-11T08:31:53.651Z,67.50
2019-03-11T08:32:53.635Z,67.50
2019-03-11T08:33:53.623Z,67.50
2019-03-11T08:34:53.636Z,61.88
2019-03-11T08:35:53.613Z,61.88
2019-03-11T08:36:53.593Z,56.25
2019-03-11T08:37:53.587Z,50.62
2019-03-11T08:38:53.593Z,50.62
2019-03-11T08:39:53.628Z,56.25
2019-03-11T08:40:53.553Z,56.25
2019-03-11T08:41:53.540Z,50.62
2019-03-11T08:42:53.529Z,61.88
2019-03-11T08:43:53.531Z,50.62
2019-03-11T08:44:53.505Z,39.38
2019-03-11T08:45:53.554Z,56.25
2019-03-11T08:46:53.491Z,67.50
2019-03-11T08:47:53.475Z,84.38
2019-03-11T08:48:53.467Z,95.62
2019-03-11T08:49:53.473Z,90.00
2019-03-11T08:50:53.450Z,84.38
2019-03-11T08:51:53.446Z,73.12
2019-03-11T08:52:53.427Z,67.50
2019-03-11T08:53:53.419Z,50.62
2019-03-11T08:54:53.405Z,45.00
2019-03-11T08:55:53.393Z,39.38
2019-03-11T08:56:53.380Z,45.00
2019-03-11T08:57:53.375Z,67.50
2019-03-11T08:58:53.375Z,84.38
2019-03-11T08:59:53.353Z,84.38
2019-03-11T09:00:53.341Z,73.12
2019-03-11T09:01:53.327Z,78.75
2019-03-11T09:02:53.325Z,67.50
2019-03-11T09:03:53.308Z,73.12
2019-03-11T09:04:53.305Z,84.38
2019-03-11T09:05:53.284Z,84.38
2019-03-11T09:06:53.275Z,84.38
2019-03-11T09:07:53.268Z,90.00
2019-03-11T09:08:53.259Z,90.00
2019-03-11T09:09:53.250Z,84.38
2019-03-11T09:10:53.237Z,90.00
2019-03-11T09:11:53.218Z,84.38
2019-03-11T09:12:53.240Z,61.88
2019-03-11T09:13:53.197Z,61.88
2019-03-11T09:14:53.191Z,73.12
2019-03-11T09:15:53.184Z,61.88
2019-03-11T09:16:53.169Z,56.25
2019-03-11T09:17:53.161Z,67.50
2019-03-11T09:18:53.149Z,84.38
2019-03-11T09:19:53.137Z,95.62
2019-03-11T09:20:53.131Z,84.38
2019-03-11T09:21:53.124Z,73.12
2019-03-11T09:22:53.108Z,67.50
2019-03-11T09:23:53.091Z,67.50
2019-03-11T09:24:53.086Z,78.75
2019-03-11T09:25:53.083Z,84.38
2019-03-11T09:26:53.065Z,56.25
2019-03-11T09:27:53.058Z,45.00
2019-03-11T09:28:53.040Z,50.62
2019-03-11T09:29:53.031Z,45.00
2019-03-11T09:30:53.042Z,33.75
2019-03-11T09:31:53.011Z,33.75
2019-03-11T09:32:53.077Z,45.00
2019-03-11T09:33:53.006Z,61.88
2019-03-11T09:34:52.977Z,73.12
2019-03-11T09:35:52.969Z,73.12
2019-03-11T09:36:52.959Z,78.75
2019-03-11T09:37:52.949Z,78.75
2019-03-11T09:38:52.974Z,90.00
2019-03-11T09:39:52.923Z,106.88
2019-03-11T09:40:52.911Z,129.38
2019-03-11T09:41:52.905Z,157.50
2019-03-11T09:42:52.889Z,135.00
2019-03-11T09:43:52.887Z,135.00
2019-03-11T09:44:52.878Z,157.50
2019-03-11T09:45:52.864Z,157.50
2019-03-11T09:46:52.855Z,163.12
2019-03-11T09:47:52.849Z,157.50
2019-03-11T09:48:52.845Z,140.62
2019-03-11T09:49:52.824Z,146.25
2019-03-11T09:50:52.811Z,168.75
2019-03-11T09:51:52.805Z,157.50
2019-03-11T09:52:52.791Z,163.12
2019-03-11T09:53:52.780Z,191.25
2019-03-11T09:54:52.768Z,208.12
2019-03-11T09:55:52.767Z,196.88
2019-03-11T09:56:52.761Z,196.88
2019-03-11T09:57:52.733Z,213.75
2019-03-11T09:58:52.723Z,219.38
2019-03-11T09:59:52.799Z,219.38
2019-03-11T10:00:52.700Z,219.38
2019-03-11T10:01:52.707Z,208.12
2019-03-11T10:02:53.580Z,202.50
2019-03-11T10:03:52.665Z,202.50
2019-03-11T10:04:52.662Z,196.88
2019-03-11T10:05:52.653Z,180.00
2019-03-11T10:06:52.635Z,180.00
2019-03-11T10:07:52.699Z,174.38
2019-03-11T10:08:52.620Z,151.88
2019-03-11T10:09:52.607Z,163.12
2019-03-11T10:10:52.591Z,129.38
2019-03-11T10:11:52.583Z,106.88
2019-03-11T10:12:52.580Z,101.25
2019-03-11T10:13:52.569Z,112.50
2019-03-11T10:14:52.553Z,112.50
2019-03-11T10:15:52.542Z,118.12
2019-03-11T10:16:52.533Z,106.88
2019-03-11T10:17:52.561Z,84.38
2019-03-11T10:18:52.519Z,67.50
2019-03-11T10:19:52.492Z,73.12
2019-03-11T10:20:52.487Z,90.00
2019-03-11T10:21:52.479Z,90.00
2019-03-11T10:22:52.475Z,73.12
2019-03-11T10:23:52.467Z,73.12
2019-03-11T10:24:52.467Z,101.25
2019-03-11T10:25:52.440Z,112.50
2019-03-11T10:26:52.435Z,90.00
2019-03-11T10:27:52.429Z,90.00
2019-03-11T10:28:52.409Z,123.75
2019-03-11T10:29:52.403Z,202.50
2019-03-11T10:30:52.377Z,168.75
2019-03-11T10:31:52.381Z,151.88
2019-03-11T10:32:52.362Z,438.75
2019-03-11T10:33:52.350Z,590.62
2019-03-11T10:34:52.375Z,669.38
2019-03-11T10:35:52.332Z,843.75
2019-03-11T10:36:52.331Z,871.88
2019-03-11T10:37:52.328Z,922.50
2019-03-11T10:38:52.297Z,281.25
2019-03-11T10:39:52.311Z,1023.75
2019-03-11T10:40:52.287Z,1305.00
2019-03-11T10:41:52.286Z,990.00
2019-03-11T10:42:52.254Z,1023.75
2019-03-11T10:43:52.246Z,1192.50
2019-03-11T10:44:52.223Z,793.12
2019-03-11T10:45:52.221Z,787.50
2019-03-11T10:46:52.216Z,804.38
2019-03-11T10:47:52.226Z,725.62
2019-03-11T10:48:52.198Z,427.50
2019-03-11T10:49:52.184Z,478.12
2019-03-11T10:50:52.300Z,410.62
2019-03-11T10:51:52.161Z,438.75
2019-03-11T10:52:52.149Z,545.62
2019-03-11T10:53:52.149Z,568.12
2019-03-11T10:54:52.124Z,635.62
2019-03-11T10:55:52.107Z,562.50
2019-03-11T10:56:52.120Z,562.50
2019-03-11T10:57:52.103Z,455.62
2019-03-11T10:58:52.088Z,427.50
2019-03-11T10:59:52.070Z,399.38
2019-03-11T11:00:52.071Z,303.75
2019-03-11T11:01:52.045Z,264.38
2019-03-11T11:02:52.038Z,241.88
2019-03-11T11:03:52.037Z,213.75
2019-03-11T11:04:52.028Z,185.62
2019-03-11T11:05:52.005Z,151.88
2019-03-11T11:06:52.002Z,118.12
2019-03-11T11:07:51.981Z,90.00
2019-03-11T11:08:51.972Z,61.88
2019-03-11T11:09:51.972Z,61.88
2019-03-11T11:10:51.946Z,56.25
2019-03-11T11:11:51.942Z,61.88
2019-03-11T11:12:51.924Z,56.25
2019-03-11T11:13:51.942Z,56.25
2019-03-11T11:14:51.906Z,50.62
2019-03-11T11:15:51.901Z,56.25
2019-03-11T11:16:51.881Z,67.50
2019-03-11T11:17:51.871Z,78.75
2019-03-11T11:18:51.873Z,84.38
2019-03-11T11:20:02.614Z,90.00
2019-03-11T11:20:52.840Z,95.62
2019-03-11T11:21:51.855Z,84.38
2019-03-11T11:22:51.817Z,78.75
2019-03-11T11:23:51.820Z,67.50
2019-03-11T11:24:51.793Z,67.50
2019-03-11T11:25:51.785Z,67.50
2019-03-11T11:26:51.779Z,78.75
2019-03-11T11:27:51.771Z,78.75
2019-03-11T11:28:51.754Z,73.12
2019-03-11T11:29:51.744Z,67.50
2019-03-11T11:30:51.742Z,61.88
2019-03-11T11:31:51.835Z,61.88
2019-03-11T11:32:51.716Z,73.12
2019-03-11T11:33:51.707Z,95.62
2019-03-11T11:34:51.690Z,90.00
2019-03-11T11:35:51.680Z,78.75
2019-03-11T11:36:51.671Z,67.50
2019-03-11T11:37:51.670Z,61.88
2019-03-11T11:38:51.663Z,56.25
2019-03-11T11:39:51.630Z,56.25
2019-03-11T11:40:51.623Z,56.25
2019-03-11T11:41:51.613Z,73.12
2019-03-11T11:42:51.600Z,78.75
2019-03-11T11:43:51.603Z,73.12
2019-03-11T11:44:51.581Z,73.12
2019-03-11T11:45:51.570Z,73.12
2019-03-11T11:46:51.573Z,73.12
2019-03-11T11:47:51.550Z,67.50
2019-03-11T11:48:51.543Z,67.50
2019-03-11T11:49:51.537Z,73.12
2019-03-11T11:50:51.515Z,73.12
2019-03-11T11:51:51.515Z,78.75
2019-03-11T11:52:51.494Z,78.75
2019-03-11T11:53:51.480Z,78.75
2019-03-11T11:54:51.484Z,78.75
2019-03-11T11:55:57.771Z,78.75
2019-03-11T11:56:52.461Z,84.38
2019-03-11T11:57:51.459Z,90.00
2019-03-11T11:58:51.440Z,90.00
2019-03-11T11:59:54.272Z,90.00
2019-03-11T12:00:51.420Z,90.00
2019-03-11T12:01:51.401Z,95.62
2019-03-11T12:02:51.396Z,101.25
2019-03-11T12:03:51.379Z,95.62
2019-03-11T12:04:51.381Z,90.00
2019-03-11T12:05:51.358Z,78.75
2019-03-11T12:06:51.362Z,73.12
2019-03-11T12:07:51.337Z,78.75
2019-03-11T12:08:51.339Z,84.38
2019-03-11T12:09:51.341Z,90.00
2019-03-11T12:10:51.319Z,95.62
2019-03-11T12:11:51.299Z,101.25
2019-03-11T12:12:51.299Z,106.88
2019-03-11T12:13:51.276Z,112.50
2019-03-11T12:14:51.257Z,118.12
2019-03-11T12:15:51.264Z,123.75
2019-03-11T12:16:51.245Z,135.00
2019-03-11T12:17:51.242Z,140.62
2019-03-11T12:18:51.247Z,135.00
2019-03-11T12:19:51.215Z,129.38
2019-03-11T12:20:51.223Z,123.75
2019-03-11T12:21:51.194Z,123.75
2019-03-11T12:22:51.176Z,129.38
2019-03-11T12:23:51.173Z,135.00
2019-03-11T12:24:51.154Z,140.62
2019-03-11T12:25:51.174Z,140.62
2019-03-11T12:26:51.138Z,140.62
2019-03-11T12:27:54.109Z,129.38
2019-03-11T12:28:51.114Z,118.12
2019-03-11T12:29:51.109Z,118.12
2019-03-11T12:30:51.090Z,118.12
2019-03-11T12:31:51.082Z,129.38
2019-03-11T12:32:51.104Z,146.25
2019-03-11T12:33:51.061Z,157.50
2019-03-11T12:34:51.073Z,157.50
2019-03-11T12:35:51.048Z,157.50
2019-03-11T12:36:51.021Z,157.50
2019-03-11T12:37:51.018Z,140.62
2019-03-11T12:38:51.013Z,146.25
2019-03-11T12:39:51.005Z,151.88
2019-03-11T12:40:51.003Z,157.50
2019-03-11T12:41:50.975Z,157.50
2019-03-11T12:42:50.979Z,157.50
2019-03-11T12:43:50.973Z,151.88
2019-03-11T12:44:53.569Z,140.62
2019-03-11T12:45:50.946Z,129.38
2019-03-11T12:46:50.927Z,140.62
2019-03-11T12:47:50.917Z,157.50
2019-03-11T12:48:50.914Z,185.62
2019-03-11T12:49:50.892Z,202.50
2019-03-11T12:50:50.875Z,219.38
2019-03-11T12:51:50.879Z,219.38
2019-03-11T12:52:50.894Z,208.12
2019-03-11T12:53:50.851Z,208.12
2019-03-11T12:54:50.835Z,219.38
2019-03-11T12:55:50.857Z,236.25
2019-03-11T12:56:50.815Z,230.62
2019-03-11T12:57:50.819Z,185.62